sensor_id;sensor_type;location;lat;lon;timestamp;P1;durP1;ratioP1;P2;durP2;ratioP2
70800;SDS011;59616;52.170;5.386;2023-04-03T00:04:05;2.70;;;1.05;;
70800;SDS011;59616;52.170;5.386;2023-04-03T00:06:32;3.80;;;1.17;;
70800;SDS011;59616;52.170;5.386;2023-04-03T00:08:59;3.10;;;1.15;;
70800;SDS011;59616;52.170;5.386;2023-04-03T00:11:27;3.17;;;1.20;;
70800;SDS011;59616;52.170;5.386;2023-04-03T00:13:54;4.07;;;1.23;;
70800;SDS011;59616;52.170;5.386;2023-04-03T00:16:21;5.43;;;1.40;;
70800;SDS011;59616;52.170;5.386;2023-04-03T00:18:48;3.50;;;1.05;;
70800;SDS011;59616;52.170;5.386;2023-04-03T00:23:42;4.43;;;1.17;;
70800;SDS011;59616;52.170;5.386;2023-04-03T00:28:38;2.03;;;1.02;;
70800;SDS011;59616;52.170;5.386;2023-04-03T00:31:05;4.50;;;1.15;;
70800;SDS011;59616;52.170;5.386;2023-04-03T00:33:32;5.00;;;1.50;;
70800;SDS011;59616;52.170;5.386;2023-04-03T00:36:04;3.30;;;1.10;;
70800;SDS011;59616;52.170;5.386;2023-04-03T00:38:32;3.45;;;1.30;;
70800;SDS011;59616;52.170;5.386;2023-04-03T00:41:00;2.58;;;0.90;;
70800;SDS011;59616;52.170;5.386;2023-04-03T00:43:27;10.30;;;1.42;;
70800;SDS011;59616;52.170;5.386;2023-04-03T00:45:55;4.07;;;1.23;;
70800;SDS011;59616;52.170;5.386;2023-04-03T00:48:24;4.35;;;1.30;;
70800;SDS011;59616;52.170;5.386;2023-04-03T00:50:52;3.83;;;1.10;;
70800;SDS011;59616;52.170;5.386;2023-04-03T00:53:24;3.70;;;1.02;;
70800;SDS011;59616;52.170;5.386;2023-04-03T00:55:52;4.25;;;1.30;;
70800;SDS011;59616;52.170;5.386;2023-04-03T00:58:22;4.65;;;1.25;;
70800;SDS011;59616;52.170;5.386;2023-04-03T01:00:54;5.18;;;1.30;;
70800;SDS011;59616;52.170;5.386;2023-04-03T01:03:23;7.07;;;1.30;;
70800;SDS011;59616;52.170;5.386;2023-04-03T01:05:52;4.68;;;1.23;;
70800;SDS011;59616;52.170;5.386;2023-04-03T01:08:20;3.90;;;1.08;;
70800;SDS011;59616;52.170;5.386;2023-04-03T01:10:48;7.30;;;1.35;;
70800;SDS011;59616;52.170;5.386;2023-04-03T01:13:21;4.65;;;1.40;;
70800;SDS011;59616;52.170;5.386;2023-04-03T01:15:49;3.13;;;1.10;;
70800;SDS011;59616;52.170;5.386;2023-04-03T01:18:16;3.45;;;1.23;;
70800;SDS011;59616;52.170;5.386;2023-04-03T01:23:29;4.35;;;1.20;;
70800;SDS011;59616;52.170;5.386;2023-04-03T01:25:59;7.32;;;1.48;;
70800;SDS011;59616;52.170;5.386;2023-04-03T01:28:28;5.25;;;1.15;;
70800;SDS011;59616;52.170;5.386;2023-04-03T01:33:54;4.15;;;1.30;;
70800;SDS011;59616;52.170;5.386;2023-04-03T01:36:31;7.25;;;1.75;;
70800;SDS011;59616;52.170;5.386;2023-04-03T01:38:59;4.03;;;1.30;;
70800;SDS011;59616;52.170;5.386;2023-04-03T01:41:27;5.32;;;1.40;;
70800;SDS011;59616;52.170;5.386;2023-04-03T01:44:01;6.07;;;1.40;;
70800;SDS011;59616;52.170;5.386;2023-04-03T01:48:54;6.22;;;1.60;;
70800;SDS011;59616;52.170;5.386;2023-04-03T01:51:22;4.68;;;1.40;;
70800;SDS011;59616;52.170;5.386;2023-04-03T01:56:15;3.65;;;1.40;;
70800;SDS011;59616;52.170;5.386;2023-04-03T01:58:43;6.43;;;1.50;;
70800;SDS011;59616;52.170;5.386;2023-04-03T02:01:11;5.05;;;1.25;;
70800;SDS011;59616;52.170;5.386;2023-04-03T02:06:05;5.88;;;1.38;;
70800;SDS011;59616;52.170;5.386;2023-04-03T02:08:32;5.63;;;1.38;;
70800;SDS011;59616;52.170;5.386;2023-04-03T02:13:26;4.07;;;1.55;;
70800;SDS011;59616;52.170;5.386;2023-04-03T02:15:53;2.65;;;1.33;;
70800;SDS011;59616;52.170;5.386;2023-04-03T02:20:47;7.30;;;1.60;;
70800;SDS011;59616;52.170;5.386;2023-04-03T02:23:15;5.28;;;1.55;;
70800;SDS011;59616;52.170;5.386;2023-04-03T02:25:42;6.35;;;1.60;;
70800;SDS011;59616;52.170;5.386;2023-04-03T02:28:10;4.55;;;1.23;;
70800;SDS011;59616;52.170;5.386;2023-04-03T02:30:37;2.80;;;1.20;;
70800;SDS011;59616;52.170;5.386;2023-04-03T02:33:05;6.05;;;1.33;;
70800;SDS011;59616;52.170;5.386;2023-04-03T02:35:32;5.43;;;1.50;;
70800;SDS011;59616;52.170;5.386;2023-04-03T02:38:00;6.68;;;1.50;;
70800;SDS011;59616;52.170;5.386;2023-04-03T02:40:27;6.63;;;1.40;;
70800;SDS011;59616;52.170;5.386;2023-04-03T02:45:23;7.55;;;1.50;;
70800;SDS011;59616;52.170;5.386;2023-04-03T02:47:51;4.50;;;1.38;;
70800;SDS011;59616;52.170;5.386;2023-04-03T02:50:18;4.30;;;1.33;;
70800;SDS011;59616;52.170;5.386;2023-04-03T02:52:46;6.70;;;1.50;;
70800;SDS011;59616;52.170;5.386;2023-04-03T02:55:14;4.90;;;1.40;;
70800;SDS011;59616;52.170;5.386;2023-04-03T02:57:43;9.98;;;1.50;;
70800;SDS011;59616;52.170;5.386;2023-04-03T03:00:12;5.25;;;1.88;;
70800;SDS011;59616;52.170;5.386;2023-04-03T03:02:39;4.05;;;1.40;;
70800;SDS011;59616;52.170;5.386;2023-04-03T03:05:06;5.03;;;1.50;;
70800;SDS011;59616;52.170;5.386;2023-04-03T03:07:34;6.25;;;1.48;;
70800;SDS011;59616;52.170;5.386;2023-04-03T03:10:01;7.82;;;1.50;;
70800;SDS011;59616;52.170;5.386;2023-04-03T03:12:29;3.22;;;1.27;;
70800;SDS011;59616;52.170;5.386;2023-04-03T03:14:58;6.18;;;1.55;;
70800;SDS011;59616;52.170;5.386;2023-04-03T03:19:52;5.53;;;1.33;;
70800;SDS011;59616;52.170;5.386;2023-04-03T03:22:19;4.57;;;1.60;;
70800;SDS011;59616;52.170;5.386;2023-04-03T03:24:47;9.10;;;1.55;;
70800;SDS011;59616;52.170;5.386;2023-04-03T03:27:14;4.22;;;1.50;;
70800;SDS011;59616;52.170;5.386;2023-04-03T03:29:42;6.95;;;1.60;;
70800;SDS011;59616;52.170;5.386;2023-04-03T03:32:10;6.65;;;1.70;;
70800;SDS011;59616;52.170;5.386;2023-04-03T03:37:04;4.78;;;1.40;;
70800;SDS011;59616;52.170;5.386;2023-04-03T03:39:31;3.40;;;1.10;;
70800;SDS011;59616;52.170;5.386;2023-04-03T03:41:59;7.43;;;1.50;;
70800;SDS011;59616;52.170;5.386;2023-04-03T03:44:26;5.60;;;1.98;;
70800;SDS011;59616;52.170;5.386;2023-04-03T03:46:55;7.28;;;1.60;;
70800;SDS011;59616;52.170;5.386;2023-04-03T03:49:23;6.28;;;1.80;;
70800;SDS011;59616;52.170;5.386;2023-04-03T03:51:50;5.57;;;1.35;;
70800;SDS011;59616;52.170;5.386;2023-04-03T03:54:17;6.70;;;1.63;;
70800;SDS011;59616;52.170;5.386;2023-04-03T03:56:45;4.32;;;1.70;;
70800;SDS011;59616;52.170;5.386;2023-04-03T04:01:39;8.77;;;1.73;;
70800;SDS011;59616;52.170;5.386;2023-04-03T04:04:07;6.32;;;1.58;;
70800;SDS011;59616;52.170;5.386;2023-04-03T04:06:34;5.72;;;1.58;;
70800;SDS011;59616;52.170;5.386;2023-04-03T04:09:04;4.75;;;1.45;;
70800;SDS011;59616;52.170;5.386;2023-04-03T04:11:31;6.68;;;1.60;;
70800;SDS011;59616;52.170;5.386;2023-04-03T04:14:00;3.53;;;1.35;;
70800;SDS011;59616;52.170;5.386;2023-04-03T04:16:28;7.55;;;1.92;;
70800;SDS011;59616;52.170;5.386;2023-04-03T04:19:00;5.63;;;1.70;;
70800;SDS011;59616;52.170;5.386;2023-04-03T04:21:28;5.13;;;1.70;;
70800;SDS011;59616;52.170;5.386;2023-04-03T04:23:55;6.13;;;1.70;;
70800;SDS011;59616;52.170;5.386;2023-04-03T04:26:23;5.63;;;1.80;;
70800;SDS011;59616;52.170;5.386;2023-04-03T04:28:51;5.07;;;1.67;;
70800;SDS011;59616;52.170;5.386;2023-04-03T04:31:18;5.57;;;1.50;;
70800;SDS011;59616;52.170;5.386;2023-04-03T04:33:46;7.68;;;1.80;;
70800;SDS011;59616;52.170;5.386;2023-04-03T04:36:15;5.70;;;1.60;;
70800;SDS011;59616;52.170;5.386;2023-04-03T04:38:44;8.07;;;1.70;;
70800;SDS011;59616;52.170;5.386;2023-04-03T04:41:13;7.53;;;1.83;;
70800;SDS011;59616;52.170;5.386;2023-04-03T04:43:41;4.60;;;1.77;;
70800;SDS011;59616;52.170;5.386;2023-04-03T04:46:09;5.65;;;1.92;;
70800;SDS011;59616;52.170;5.386;2023-04-03T04:48:43;5.35;;;1.60;;
70800;SDS011;59616;52.170;5.386;2023-04-03T04:51:12;7.30;;;1.88;;
70800;SDS011;59616;52.170;5.386;2023-04-03T04:53:40;5.68;;;1.73;;
70800;SDS011;59616;52.170;5.386;2023-04-03T04:56:10;5.03;;;1.83;;
70800;SDS011;59616;52.170;5.386;2023-04-03T04:58:38;5.57;;;1.67;;
70800;SDS011;59616;52.170;5.386;2023-04-03T05:01:07;5.53;;;1.77;;
70800;SDS011;59616;52.170;5.386;2023-04-03T05:03:41;8.52;;;1.70;;
70800;SDS011;59616;52.170;5.386;2023-04-03T05:06:08;6.68;;;2.00;;
70800;SDS011;59616;52.170;5.386;2023-04-03T05:08:36;5.65;;;1.88;;
70800;SDS011;59616;52.170;5.386;2023-04-03T05:11:03;5.55;;;1.60;;
70800;SDS011;59616;52.170;5.386;2023-04-03T05:13:31;4.95;;;1.65;;
70800;SDS011;59616;52.170;5.386;2023-04-03T05:15:59;5.07;;;1.83;;
70800;SDS011;59616;52.170;5.386;2023-04-03T05:18:27;8.88;;;3.17;;
70800;SDS011;59616;52.170;5.386;2023-04-03T05:20:57;7.43;;;2.08;;
70800;SDS011;59616;52.170;5.386;2023-04-03T05:23:25;7.18;;;1.95;;
70800;SDS011;59616;52.170;5.386;2023-04-03T05:25:53;5.28;;;1.88;;
70800;SDS011;59616;52.170;5.386;2023-04-03T05:28:21;6.50;;;1.80;;
70800;SDS011;59616;52.170;5.386;2023-04-03T05:30:58;6.82;;;1.90;;
70800;SDS011;59616;52.170;5.386;2023-04-03T05:33:31;7.68;;;2.15;;
70800;SDS011;59616;52.170;5.386;2023-04-03T05:36:03;4.00;;;1.27;;
70800;SDS011;59616;52.170;5.386;2023-04-03T05:38:34;5.85;;;2.08;;
70800;SDS011;59616;52.170;5.386;2023-04-03T05:41:02;6.03;;;1.90;;
70800;SDS011;59616;52.170;5.386;2023-04-03T05:45:56;7.07;;;1.80;;
70800;SDS011;59616;52.170;5.386;2023-04-03T05:48:25;7.38;;;1.50;;
70800;SDS011;59616;52.170;5.386;2023-04-03T05:50:53;9.65;;;2.03;;
70800;SDS011;59616;52.170;5.386;2023-04-03T05:53:25;6.85;;;1.80;;
70800;SDS011;59616;52.170;5.386;2023-04-03T05:55:57;6.22;;;1.95;;
70800;SDS011;59616;52.170;5.386;2023-04-03T05:58:24;8.00;;;1.98;;
70800;SDS011;59616;52.170;5.386;2023-04-03T06:00:52;9.57;;;2.15;;
70800;SDS011;59616;52.170;5.386;2023-04-03T06:05:46;5.43;;;1.50;;
70800;SDS011;59616;52.170;5.386;2023-04-03T06:10:41;5.35;;;1.73;;
70800;SDS011;59616;52.170;5.386;2023-04-03T06:13:08;8.88;;;1.88;;
70800;SDS011;59616;52.170;5.386;2023-04-03T06:18:02;4.53;;;1.55;;
70800;SDS011;59616;52.170;5.386;2023-04-03T06:20:30;7.30;;;1.45;;
70800;SDS011;59616;52.170;5.386;2023-04-03T06:22:58;4.63;;;1.77;;
70800;SDS011;59616;52.170;5.386;2023-04-03T06:25:26;7.85;;;2.05;;
70800;SDS011;59616;52.170;5.386;2023-04-03T06:27:53;4.97;;;1.60;;
70800;SDS011;59616;52.170;5.386;2023-04-03T06:30:21;10.63;;;2.47;;
70800;SDS011;59616;52.170;5.386;2023-04-03T06:35:15;7.72;;;1.58;;
70800;SDS011;59616;52.170;5.386;2023-04-03T06:40:13;7.40;;;1.85;;
70800;SDS011;59616;52.170;5.386;2023-04-03T06:42:43;5.13;;;1.67;;
70800;SDS011;59616;52.170;5.386;2023-04-03T06:45:11;5.95;;;1.85;;
70800;SDS011;59616;52.170;5.386;2023-04-03T06:50:05;7.55;;;1.67;;
70800;SDS011;59616;52.170;5.386;2023-04-03T06:52:33;4.38;;;1.40;;
70800;SDS011;59616;52.170;5.386;2023-04-03T06:57:27;10.02;;;2.17;;
70800;SDS011;59616;52.170;5.386;2023-04-03T06:59:55;5.93;;;1.80;;
70800;SDS011;59616;52.170;5.386;2023-04-03T07:02:22;6.50;;;1.70;;
70800;SDS011;59616;52.170;5.386;2023-04-03T07:04:50;6.00;;;1.88;;
70800;SDS011;59616;52.170;5.386;2023-04-03T07:07:17;7.15;;;1.80;;
70800;SDS011;59616;52.170;5.386;2023-04-03T07:12:12;8.82;;;1.90;;
70800;SDS011;59616;52.170;5.386;2023-04-03T07:14:40;6.82;;;1.55;;
70800;SDS011;59616;52.170;5.386;2023-04-03T07:17:07;7.25;;;1.63;;
70800;SDS011;59616;52.170;5.386;2023-04-03T07:22:01;5.03;;;1.75;;
70800;SDS011;59616;52.170;5.386;2023-04-03T07:24:29;5.78;;;1.90;;
70800;SDS011;59616;52.170;5.386;2023-04-03T07:29:23;8.32;;;1.63;;
70800;SDS011;59616;52.170;5.386;2023-04-03T07:34:18;5.65;;;1.88;;
70800;SDS011;59616;52.170;5.386;2023-04-03T07:36:46;10.02;;;2.08;;
70800;SDS011;59616;52.170;5.386;2023-04-03T07:39:13;5.43;;;1.45;;
70800;SDS011;59616;52.170;5.386;2023-04-03T07:41:40;7.68;;;1.50;;
70800;SDS011;59616;52.170;5.386;2023-04-03T07:46:36;7.22;;;1.35;;
70800;SDS011;59616;52.170;5.386;2023-04-03T07:49:04;2.90;;;1.30;;
70800;SDS011;59616;52.170;5.386;2023-04-03T07:51:31;6.50;;;1.40;;
70800;SDS011;59616;52.170;5.386;2023-04-03T07:53:58;8.52;;;1.58;;
70800;SDS011;59616;52.170;5.386;2023-04-03T07:56:25;4.95;;;1.48;;
70800;SDS011;59616;52.170;5.386;2023-04-03T07:58:53;3.97;;;1.38;;
70800;SDS011;59616;52.170;5.386;2023-04-03T08:01:20;10.00;;;1.60;;
70800;SDS011;59616;52.170;5.386;2023-04-03T08:03:47;4.50;;;1.40;;
70800;SDS011;59616;52.170;5.386;2023-04-03T08:06:15;5.22;;;1.30;;
70800;SDS011;59616;52.170;5.386;2023-04-03T08:08:48;3.55;;;1.15;;
70800;SDS011;59616;52.170;5.386;2023-04-03T08:11:16;7.28;;;1.48;;
70800;SDS011;59616;52.170;5.386;2023-04-03T08:13:44;4.97;;;1.20;;
70800;SDS011;59616;52.170;5.386;2023-04-03T08:16:14;5.60;;;1.60;;
70800;SDS011;59616;52.170;5.386;2023-04-03T08:18:43;6.18;;;1.58;;
70800;SDS011;59616;52.170;5.386;2023-04-03T08:21:11;7.53;;;1.73;;
70800;SDS011;59616;52.170;5.386;2023-04-03T08:23:39;8.18;;;1.52;;
70800;SDS011;59616;52.170;5.386;2023-04-03T08:26:08;7.35;;;1.80;;
70800;SDS011;59616;52.170;5.386;2023-04-03T08:28:36;5.38;;;1.60;;
70800;SDS011;59616;52.170;5.386;2023-04-03T08:31:05;6.38;;;1.55;;
70800;SDS011;59616;52.170;5.386;2023-04-03T08:33:33;5.75;;;1.58;;
70800;SDS011;59616;52.170;5.386;2023-04-03T08:36:06;4.03;;;1.13;;
70800;SDS011;59616;52.170;5.386;2023-04-03T08:38:34;6.25;;;1.20;;
70800;SDS011;59616;52.170;5.386;2023-04-03T08:41:04;7.68;;;1.65;;
70800;SDS011;59616;52.170;5.386;2023-04-03T08:43:42;7.18;;;1.60;;
70800;SDS011;59616;52.170;5.386;2023-04-03T08:46:13;6.40;;;1.77;;
70800;SDS011;59616;52.170;5.386;2023-04-03T08:48:42;5.78;;;1.52;;
70800;SDS011;59616;52.170;5.386;2023-04-03T08:51:12;7.80;;;1.42;;
70800;SDS011;59616;52.170;5.386;2023-04-03T08:53:42;4.80;;;1.30;;
70800;SDS011;59616;52.170;5.386;2023-04-03T08:56:11;5.32;;;1.48;;
70800;SDS011;59616;52.170;5.386;2023-04-03T08:58:45;4.43;;;1.30;;
70800;SDS011;59616;52.170;5.386;2023-04-03T09:03:44;2.85;;;0.75;;
70800;SDS011;59616;52.170;5.386;2023-04-03T09:06:15;2.47;;;0.80;;
70800;SDS011;59616;52.170;5.386;2023-04-03T09:24:41;3.58;;;0.80;;
70800;SDS011;59616;52.170;5.386;2023-04-03T09:27:11;3.42;;;0.65;;
70800;SDS011;59616;52.170;5.386;2023-04-03T09:29:42;1.85;;;0.68;;
70800;SDS011;59616;52.170;5.386;2023-04-03T09:32:18;1.55;;;0.60;;
70800;SDS011;59616;52.170;5.386;2023-04-03T09:34:45;2.50;;;0.70;;
70800;SDS011;59616;52.170;5.386;2023-04-03T09:37:32;4.72;;;0.70;;
70800;SDS011;59616;52.170;5.386;2023-04-03T09:40:01;1.58;;;0.60;;
70800;SDS011;59616;52.170;5.386;2023-04-03T09:42:30;2.05;;;0.50;;
70800;SDS011;59616;52.170;5.386;2023-04-03T09:44:59;2.30;;;0.43;;
70800;SDS011;59616;52.170;5.386;2023-04-03T09:47:33;1.52;;;0.40;;
70800;SDS011;59616;52.170;5.386;2023-04-03T09:52:41;2.95;;;0.63;;
70800;SDS011;59616;52.170;5.386;2023-04-03T09:55:19;1.67;;;0.50;;
70800;SDS011;59616;52.170;5.386;2023-04-03T09:58:00;2.78;;;0.77;;
70800;SDS011;59616;52.170;5.386;2023-04-03T10:00:29;1.45;;;0.55;;
70800;SDS011;59616;52.170;5.386;2023-04-03T10:02:58;1.55;;;0.50;;
70800;SDS011;59616;52.170;5.386;2023-04-03T10:07:52;1.83;;;0.30;;
70800;SDS011;59616;52.170;5.386;2023-04-03T10:10:34;0.95;;;0.40;;
70800;SDS011;59616;52.170;5.386;2023-04-03T10:13:23;2.97;;;0.40;;
70800;SDS011;59616;52.170;5.386;2023-04-03T10:15:51;1.05;;;0.50;;
70800;SDS011;59616;52.170;5.386;2023-04-03T10:18:27;1.98;;;0.47;;
70800;SDS011;59616;52.170;5.386;2023-04-03T10:20:57;1.88;;;0.60;;
70800;SDS011;59616;52.170;5.386;2023-04-03T10:23:32;1.52;;;0.55;;
70800;SDS011;59616;52.170;5.386;2023-04-03T10:31:17;1.30;;;0.40;;
70800;SDS011;59616;52.170;5.386;2023-04-03T10:33:56;1.55;;;0.50;;
70800;SDS011;59616;52.170;5.386;2023-04-03T10:39:02;2.63;;;0.60;;
70800;SDS011;59616;52.170;5.386;2023-04-03T10:46:54;1.83;;;0.70;;
70800;SDS011;59616;52.170;5.386;2023-04-03T10:49:35;2.22;;;0.50;;
70800;SDS011;59616;52.170;5.386;2023-04-03T10:52:31;1.00;;;0.45;;
70800;SDS011;59616;52.170;5.386;2023-04-03T10:57:40;3.05;;;0.73;;
70800;SDS011;59616;52.170;5.386;2023-04-03T11:00:16;2.17;;;0.60;;
70800;SDS011;59616;52.170;5.386;2023-04-03T11:02:53;6.22;;;0.80;;
70800;SDS011;59616;52.170;5.386;2023-04-03T11:07:56;1.27;;;0.50;;
70800;SDS011;59616;52.170;5.386;2023-04-03T11:10:36;5.68;;;0.90;;
70800;SDS011;59616;52.170;5.386;2023-04-03T11:13:10;2.00;;;0.50;;
70800;SDS011;59616;52.170;5.386;2023-04-03T11:15:39;0.93;;;0.50;;
70800;SDS011;59616;52.170;5.386;2023-04-03T11:18:14;3.88;;;0.70;;
70800;SDS011;59616;52.170;5.386;2023-04-03T11:20:53;2.42;;;0.77;;
70800;SDS011;59616;52.170;5.386;2023-04-03T11:23:24;3.33;;;0.75;;
70800;SDS011;59616;52.170;5.386;2023-04-03T11:26:11;3.58;;;0.70;;
70800;SDS011;59616;52.170;5.386;2023-04-03T11:28:39;2.00;;;0.50;;
70800;SDS011;59616;52.170;5.386;2023-04-03T11:31:23;3.78;;;0.88;;
70800;SDS011;59616;52.170;5.386;2023-04-03T11:34:14;2.70;;;0.70;;
70800;SDS011;59616;52.170;5.386;2023-04-03T11:36:44;2.28;;;0.70;;
70800;SDS011;59616;52.170;5.386;2023-04-03T11:41:43;1.63;;;0.80;;
70800;SDS011;59616;52.170;5.386;2023-04-03T11:50:30;1.35;;;0.60;;
70800;SDS011;59616;52.170;5.386;2023-04-03T11:52:59;1.65;;;0.68;;
70800;SDS011;59616;52.170;5.386;2023-04-03T12:05:53;6.10;;;0.82;;
70800;SDS011;59616;52.170;5.386;2023-04-03T12:08:42;1.65;;;0.68;;
70800;SDS011;59616;52.170;5.386;2023-04-03T12:16:07;2.10;;;0.70;;
70800;SDS011;59616;52.170;5.386;2023-04-03T12:18:43;1.50;;;0.77;;
70800;SDS011;59616;52.170;5.386;2023-04-03T12:21:11;7.78;;;1.00;;
70800;SDS011;59616;52.170;5.386;2023-04-03T12:26:22;1.98;;;0.57;;
70800;SDS011;59616;52.170;5.386;2023-04-03T12:29:10;3.63;;;0.80;;
70800;SDS011;59616;52.170;5.386;2023-04-03T12:31:42;7.80;;;0.75;;
70800;SDS011;59616;52.170;5.386;2023-04-03T12:39:25;2.65;;;0.80;;
70800;SDS011;59616;52.170;5.386;2023-04-03T12:42:14;1.60;;;0.70;;
70800;SDS011;59616;52.170;5.386;2023-04-03T12:47:19;3.03;;;0.80;;
70800;SDS011;59616;52.170;5.386;2023-04-03T12:49:49;2.38;;;0.90;;
70800;SDS011;59616;52.170;5.386;2023-04-03T12:52:19;4.57;;;1.00;;
70800;SDS011;59616;52.170;5.386;2023-04-03T12:54:49;4.35;;;0.75;;
70800;SDS011;59616;52.170;5.386;2023-04-03T12:57:18;3.25;;;0.98;;
70800;SDS011;59616;52.170;5.386;2023-04-03T12:59:46;6.40;;;0.95;;
70800;SDS011;59616;52.170;5.386;2023-04-03T13:02:21;2.35;;;0.82;;
70800;SDS011;59616;52.170;5.386;2023-04-03T13:04:50;2.55;;;0.70;;
70800;SDS011;59616;52.170;5.386;2023-04-03T13:07:18;1.60;;;0.98;;
70800;SDS011;59616;52.170;5.386;2023-04-03T13:09:54;2.03;;;0.73;;
70800;SDS011;59616;52.170;5.386;2023-04-03T13:12:22;1.30;;;0.57;;
70800;SDS011;59616;52.170;5.386;2023-04-03T13:14:53;2.55;;;0.98;;
70800;SDS011;59616;52.170;5.386;2023-04-03T13:17:21;6.50;;;0.90;;
70800;SDS011;59616;52.170;5.386;2023-04-03T13:19:48;2.95;;;0.70;;
70800;SDS011;59616;52.170;5.386;2023-04-03T13:24:44;2.50;;;0.90;;
70800;SDS011;59616;52.170;5.386;2023-04-03T13:27:12;4.75;;;1.02;;
70800;SDS011;59616;52.170;5.386;2023-04-03T13:29:39;2.13;;;0.65;;
70800;SDS011;59616;52.170;5.386;2023-04-03T13:32:07;2.97;;;0.88;;
70800;SDS011;59616;52.170;5.386;2023-04-03T13:34:41;2.38;;;0.88;;
70800;SDS011;59616;52.170;5.386;2023-04-03T13:37:21;3.25;;;0.80;;
70800;SDS011;59616;52.170;5.386;2023-04-03T13:39:56;4.03;;;0.70;;
70800;SDS011;59616;52.170;5.386;2023-04-03T13:42:25;3.55;;;0.95;;
70800;SDS011;59616;52.170;5.386;2023-04-03T13:47:40;3.08;;;0.73;;
70800;SDS011;59616;52.170;5.386;2023-04-03T13:50:26;2.58;;;0.90;;
70800;SDS011;59616;52.170;5.386;2023-04-03T13:52:59;2.78;;;0.82;;
70800;SDS011;59616;52.170;5.386;2023-04-03T13:55:32;3.55;;;0.80;;
70800;SDS011;59616;52.170;5.386;2023-04-03T13:58:02;5.43;;;1.00;;
70800;SDS011;59616;52.170;5.386;2023-04-03T14:00:51;4.65;;;1.10;;
70800;SDS011;59616;52.170;5.386;2023-04-03T14:03:36;3.13;;;0.90;;
70800;SDS011;59616;52.170;5.386;2023-04-03T14:06:05;2.92;;;1.00;;
70800;SDS011;59616;52.170;5.386;2023-04-03T14:08:32;3.75;;;1.08;;
70800;SDS011;59616;52.170;5.386;2023-04-03T14:11:11;2.72;;;0.73;;
70800;SDS011;59616;52.170;5.386;2023-04-03T14:13:39;3.67;;;0.90;;
70800;SDS011;59616;52.170;5.386;2023-04-03T14:16:07;3.38;;;1.00;;
70800;SDS011;59616;52.170;5.386;2023-04-03T14:18:41;3.50;;;1.08;;
70800;SDS011;59616;52.170;5.386;2023-04-03T14:21:10;4.78;;;1.13;;
70800;SDS011;59616;52.170;5.386;2023-04-03T14:23:38;2.67;;;0.93;;
70800;SDS011;59616;52.170;5.386;2023-04-03T14:26:09;4.00;;;1.00;;
70800;SDS011;59616;52.170;5.386;2023-04-03T14:28:37;3.50;;;1.05;;
70800;SDS011;59616;52.170;5.386;2023-04-03T14:31:10;2.38;;;0.90;;
70800;SDS011;59616;52.170;5.386;2023-04-03T14:33:37;3.03;;;1.02;;
70800;SDS011;59616;52.170;5.386;2023-04-03T14:36:10;4.47;;;1.15;;
70800;SDS011;59616;52.170;5.386;2023-04-03T14:38:38;6.90;;;1.17;;
70800;SDS011;59616;52.170;5.386;2023-04-03T14:41:06;3.92;;;1.00;;
70800;SDS011;59616;52.170;5.386;2023-04-03T14:43:42;4.95;;;1.00;;
70800;SDS011;59616;52.170;5.386;2023-04-03T14:46:11;4.00;;;1.10;;
70800;SDS011;59616;52.170;5.386;2023-04-03T14:48:40;3.03;;;0.90;;
70800;SDS011;59616;52.170;5.386;2023-04-03T14:51:09;3.50;;;1.10;;
70800;SDS011;59616;52.170;5.386;2023-04-03T14:53:37;3.63;;;1.20;;
70800;SDS011;59616;52.170;5.386;2023-04-03T14:56:09;5.38;;;1.00;;
70800;SDS011;59616;52.170;5.386;2023-04-03T14:58:37;5.20;;;1.23;;
70800;SDS011;59616;52.170;5.386;2023-04-03T15:01:04;4.38;;;1.00;;
70800;SDS011;59616;52.170;5.386;2023-04-03T15:03:32;4.95;;;1.13;;
70800;SDS011;59616;52.170;5.386;2023-04-03T15:05:59;4.40;;;1.25;;
70800;SDS011;59616;52.170;5.386;2023-04-03T15:08:27;6.57;;;1.40;;
70800;SDS011;59616;52.170;5.386;2023-04-03T15:10:57;4.65;;;1.10;;
70800;SDS011;59616;52.170;5.386;2023-04-03T15:13:24;3.65;;;1.40;;
70800;SDS011;59616;52.170;5.386;2023-04-03T15:15:51;5.07;;;1.33;;
70800;SDS011;59616;52.170;5.386;2023-04-03T15:18:20;5.18;;;1.00;;
70800;SDS011;59616;52.170;5.386;2023-04-03T15:20:48;5.95;;;1.27;;
70800;SDS011;59616;52.170;5.386;2023-04-03T15:23:16;3.65;;;1.00;;
70800;SDS011;59616;52.170;5.386;2023-04-03T15:25:44;4.90;;;1.38;;
70800;SDS011;59616;52.170;5.386;2023-04-03T15:28:31;4.25;;;1.20;;
70800;SDS011;59616;52.170;5.386;2023-04-03T15:30:59;5.15;;;1.20;;
70800;SDS011;59616;52.170;5.386;2023-04-03T15:33:26;6.72;;;1.30;;
70800;SDS011;59616;52.170;5.386;2023-04-03T15:35:53;4.80;;;1.40;;
70800;SDS011;59616;52.170;5.386;2023-04-03T15:38:33;5.70;;;1.30;;
70800;SDS011;59616;52.170;5.386;2023-04-03T15:41:00;7.20;;;1.27;;
70800;SDS011;59616;52.170;5.386;2023-04-03T15:43:27;4.90;;;1.23;;
70800;SDS011;59616;52.170;5.386;2023-04-03T15:45:56;3.42;;;1.08;;
70800;SDS011;59616;52.170;5.386;2023-04-03T15:48:23;5.45;;;1.30;;
70800;SDS011;59616;52.170;5.386;2023-04-03T15:50:51;6.57;;;1.23;;
70800;SDS011;59616;52.170;5.386;2023-04-03T15:53:18;5.25;;;1.17;;
70800;SDS011;59616;52.170;5.386;2023-04-03T15:55:45;4.93;;;1.20;;
70800;SDS011;59616;52.170;5.386;2023-04-03T15:58:13;2.85;;;1.20;;
70800;SDS011;59616;52.170;5.386;2023-04-03T16:00:40;4.60;;;1.50;;
70800;SDS011;59616;52.170;5.386;2023-04-03T16:03:08;5.28;;;1.30;;
70800;SDS011;59616;52.170;5.386;2023-04-03T16:05:36;3.38;;;1.23;;
70800;SDS011;59616;52.170;5.386;2023-04-03T16:08:04;4.60;;;1.10;;
70800;SDS011;59616;52.170;5.386;2023-04-03T16:10:34;3.50;;;1.20;;
70800;SDS011;59616;52.170;5.386;2023-04-03T16:13:02;6.82;;;1.70;;
70800;SDS011;59616;52.170;5.386;2023-04-03T16:15:30;3.30;;;1.08;;
70800;SDS011;59616;52.170;5.386;2023-04-03T16:17:57;8.65;;;1.88;;
70800;SDS011;59616;52.170;5.386;2023-04-03T16:20:25;5.72;;;1.17;;
70800;SDS011;59616;52.170;5.386;2023-04-03T16:22:52;3.40;;;1.20;;
70800;SDS011;59616;52.170;5.386;2023-04-03T16:25:20;4.38;;;1.20;;
70800;SDS011;59616;52.170;5.386;2023-04-03T16:27:47;4.45;;;1.13;;
70800;SDS011;59616;52.170;5.386;2023-04-03T16:30:14;5.03;;;1.40;;
70800;SDS011;59616;52.170;5.386;2023-04-03T16:32:42;3.72;;;1.00;;
70800;SDS011;59616;52.170;5.386;2023-04-03T16:35:09;5.60;;;1.52;;
70800;SDS011;59616;52.170;5.386;2023-04-03T16:37:38;4.70;;;1.17;;
70800;SDS011;59616;52.170;5.386;2023-04-03T16:40:06;5.15;;;1.20;;
70800;SDS011;59616;52.170;5.386;2023-04-03T16:42:33;5.07;;;1.27;;
70800;SDS011;59616;52.170;5.386;2023-04-03T16:45:03;5.22;;;1.00;;
70800;SDS011;59616;52.170;5.386;2023-04-03T16:47:30;3.72;;;1.30;;
70800;SDS011;59616;52.170;5.386;2023-04-03T16:49:58;3.63;;;1.10;;
70800;SDS011;59616;52.170;5.386;2023-04-03T16:52:25;3.78;;;1.02;;
70800;SDS011;59616;52.170;5.386;2023-04-03T16:54:52;4.07;;;0.90;;
70800;SDS011;59616;52.170;5.386;2023-04-03T16:57:22;6.38;;;1.50;;
70800;SDS011;59616;52.170;5.386;2023-04-03T16:59:51;3.70;;;1.10;;
70800;SDS011;59616;52.170;5.386;2023-04-03T17:02:18;6.07;;;1.20;;
70800;SDS011;59616;52.170;5.386;2023-04-03T17:04:46;4.97;;;1.25;;
70800;SDS011;59616;52.170;5.386;2023-04-03T17:07:15;7.30;;;1.20;;
70800;SDS011;59616;52.170;5.386;2023-04-03T17:09:43;3.38;;;1.13;;
70800;SDS011;59616;52.170;5.386;2023-04-03T17:12:10;3.80;;;1.10;;
70800;SDS011;59616;52.170;5.386;2023-04-03T17:14:37;2.42;;;1.00;;
70800;SDS011;59616;52.170;5.386;2023-04-03T17:17:04;5.07;;;1.40;;
70800;SDS011;59616;52.170;5.386;2023-04-03T17:19:31;3.83;;;1.13;;
70800;SDS011;59616;52.170;5.386;2023-04-03T17:21:59;2.70;;;0.95;;
70800;SDS011;59616;52.170;5.386;2023-04-03T17:24:26;6.28;;;1.20;;
70800;SDS011;59616;52.170;5.386;2023-04-03T17:26:54;5.22;;;1.13;;
70800;SDS011;59616;52.170;5.386;2023-04-03T17:29:21;5.15;;;1.40;;
70800;SDS011;59616;52.170;5.386;2023-04-03T17:31:48;6.65;;;1.30;;